sensor_id;sensor_type;location;lat;lon;timestamp;P1;durP1;ratioP1;P2;durP2;ratioP2
71176;SDS011;58877;51.992;4.504;2023-05-20T00:00:10;3.96;;;3.91;;
71176;SDS011;58877;51.992;4.504;2023-05-20T00:02:36;4.29;;;4.14;;
71176;SDS011;58877;51.992;4.504;2023-05-20T00:05:02;4.06;;;3.92;;
71176;SDS011;58877;51.992;4.504;2023-05-20T00:07:29;4.37;;;4.24;;
71176;SDS011;58877;51.992;4.504;2023-05-20T00:09:55;4.25;;;4.10;;
71176;SDS011;58877;51.992;4.504;2023-05-20T00:12:21;4.08;;;3.99;;
71176;SDS011;58877;51.992;4.504;2023-05-20T00:14:47;3.58;;;3.54;;
71176;SDS011;58877;51.992;4.504;2023-05-20T00:17:20;3.92;;;3.92;;
71176;SDS011;58877;51.992;4.504;2023-05-20T00:19:55;3.64;;;3.64;;
71176;SDS011;58877;51.992;4.504;2023-05-20T00:22:21;4.06;;;4.05;;
71176;SDS011;58877;51.992;4.504;2023-05-20T00:24:47;3.98;;;3.92;;
71176;SDS011;58877;51.992;4.504;2023-05-20T00:27:13;3.98;;;3.93;;
71176;SDS011;58877;51.992;4.504;2023-05-20T00:29:38;4.47;;;4.40;;
71176;SDS011;58877;51.992;4.504;2023-05-20T00:32:04;4.23;;;4.17;;
71176;SDS011;58877;51.992;4.504;2023-05-20T00:34:31;4.16;;;4.15;;
71176;SDS011;58877;51.992;4.504;2023-05-20T00:36:59;4.00;;;4.00;;
71176;SDS011;58877;51.992;4.504;2023-05-20T00:39:25;4.23;;;4.23;;
71176;SDS011;58877;51.992;4.504;2023-05-20T00:41:50;3.76;;;3.75;;
71176;SDS011;58877;51.992;4.504;2023-05-20T00:44:16;3.90;;;3.86;;
71176;SDS011;58877;51.992;4.504;2023-05-20T00:46:43;3.93;;;3.89;;
71176;SDS011;58877;51.992;4.504;2023-05-20T00:49:09;4.55;;;4.52;;
71176;SDS011;58877;51.992;4.504;2023-05-20T00:51:35;4.32;;;4.27;;
71176;SDS011;58877;51.992;4.504;2023-05-20T00:54:01;4.35;;;4.33;;
71176;SDS011;58877;51.992;4.504;2023-05-20T00:56:27;4.28;;;4.25;;
71176;SDS011;58877;51.992;4.504;2023-05-20T00:58:54;3.99;;;3.95;;
71176;SDS011;58877;51.992;4.504;2023-05-20T01:01:20;3.89;;;3.87;;
71176;SDS011;58877;51.992;4.504;2023-05-20T01:03:46;4.39;;;4.38;;
71176;SDS011;58877;51.992;4.504;2023-05-20T01:06:12;4.04;;;3.98;;
71176;SDS011;58877;51.992;4.504;2023-05-20T01:08:38;4.16;;;4.08;;
71176;SDS011;58877;51.992;4.504;2023-05-20T01:11:10;4.21;;;4.15;;
71176;SDS011;58877;51.992;4.504;2023-05-20T01:13:46;4.14;;;4.11;;
71176;SDS011;58877;51.992;4.504;2023-05-20T01:16:18;3.94;;;3.94;;
71176;SDS011;58877;51.992;4.504;2023-05-20T01:18:48;4.24;;;4.24;;
71176;SDS011;58877;51.992;4.504;2023-05-20T01:21:19;3.75;;;3.75;;
71176;SDS011;58877;51.992;4.504;2023-05-20T01:23:48;4.24;;;4.24;;
71176;SDS011;58877;51.992;4.504;2023-05-20T01:26:13;4.20;;;4.18;;
71176;SDS011;58877;51.992;4.504;2023-05-20T01:28:39;4.37;;;4.34;;
71176;SDS011;58877;51.992;4.504;2023-05-20T01:31:13;4.67;;;4.62;;
71176;SDS011;58877;51.992;4.504;2023-05-20T01:33:44;4.54;;;4.49;;
71176;SDS011;58877;51.992;4.504;2023-05-20T01:36:16;4.68;;;4.61;;
71176;SDS011;58877;51.992;4.504;2023-05-20T01:38:45;4.44;;;4.42;;
71176;SDS011;58877;51.992;4.504;2023-05-20T01:41:13;4.47;;;4.47;;
71176;SDS011;58877;51.992;4.504;2023-05-20T01:43:40;4.26;;;4.25;;
71176;SDS011;58877;51.992;4.504;2023-05-20T01:46:07;4.57;;;4.55;;
71176;SDS011;58877;51.992;4.504;2023-05-20T01:48:33;4.47;;;4.45;;
71176;SDS011;58877;51.992;4.504;2023-05-20T01:50:59;4.13;;;4.13;;
71176;SDS011;58877;51.992;4.504;2023-05-20T01:53:24;4.47;;;4.47;;
71176;SDS011;58877;51.992;4.504;2023-05-20T01:55:50;4.62;;;4.62;;
71176;SDS011;58877;51.992;4.504;2023-05-20T01:58:15;4.46;;;4.46;;
71176;SDS011;58877;51.992;4.504;2023-05-20T02:00:41;4.45;;;4.43;;
71176;SDS011;58877;51.992;4.504;2023-05-20T02:03:06;4.90;;;4.87;;
71176;SDS011;58877;51.992;4.504;2023-05-20T02:05:32;4.78;;;4.76;;
71176;SDS011;58877;51.992;4.504;2023-05-20T02:07:58;4.71;;;4.70;;
71176;SDS011;58877;51.992;4.504;2023-05-20T02:10:23;4.70;;;4.69;;
71176;SDS011;58877;51.992;4.504;2023-05-20T02:12:49;4.57;;;4.56;;
71176;SDS011;58877;51.992;4.504;2023-05-20T02:15:15;5.11;;;5.08;;
71176;SDS011;58877;51.992;4.504;2023-05-20T02:17:40;4.60;;;4.58;;
71176;SDS011;58877;51.992;4.504;2023-05-20T02:20:09;4.90;;;4.89;;
71176;SDS011;58877;51.992;4.504;2023-05-20T02:22:35;4.59;;;4.56;;
71176;SDS011;58877;51.992;4.504;2023-05-20T02:25:01;4.85;;;4.82;;
71176;SDS011;58877;51.992;4.504;2023-05-20T02:27:27;4.84;;;4.79;;
71176;SDS011;58877;51.992;4.504;2023-05-20T02:29:53;4.96;;;4.92;;
71176;SDS011;58877;51.992;4.504;2023-05-20T02:32:18;4.80;;;4.80;;
71176;SDS011;58877;51.992;4.504;2023-05-20T02:34:45;4.87;;;4.85;;
71176;SDS011;58877;51.992;4.504;2023-05-20T02:37:11;4.73;;;4.73;;
71176;SDS011;58877;51.992;4.504;2023-05-20T02:39:36;4.92;;;4.92;;
71176;SDS011;58877;51.992;4.504;2023-05-20T02:42:02;4.55;;;4.55;;
71176;SDS011;58877;51.992;4.504;2023-05-20T02:44:28;4.60;;;4.60;;
71176;SDS011;58877;51.992;4.504;2023-05-20T02:46:54;4.91;;;4.89;;
71176;SDS011;58877;51.992;4.504;2023-05-20T02:49:20;4.76;;;4.72;;
71176;SDS011;58877;51.992;4.504;2023-05-20T02:51:45;4.39;;;4.39;;
71176;SDS011;58877;51.992;4.504;2023-05-20T02:54:11;4.71;;;4.71;;
71176;SDS011;58877;51.992;4.504;2023-05-20T02:56:36;4.73;;;4.72;;
71176;SDS011;58877;51.992;4.504;2023-05-20T02:59:02;4.46;;;4.46;;
71176;SDS011;58877;51.992;4.504;2023-05-20T03:01:29;4.80;;;4.80;;
71176;SDS011;58877;51.992;4.504;2023-05-20T03:03:54;4.20;;;4.20;;
71176;SDS011;58877;51.992;4.504;2023-05-20T03:06:20;4.55;;;4.55;;
71176;SDS011;58877;51.992;4.504;2023-05-20T03:08:45;4.56;;;4.56;;
71176;SDS011;58877;51.992;4.504;2023-05-20T03:11:11;4.62;;;4.62;;
71176;SDS011;58877;51.992;4.504;2023-05-20T03:13:36;4.16;;;4.15;;
71176;SDS011;58877;51.992;4.504;2023-05-20T03:16:02;4.69;;;4.69;;
71176;SDS011;58877;51.992;4.504;2023-05-20T03:18:28;4.62;;;4.62;;
71176;SDS011;58877;51.992;4.504;2023-05-20T03:20:56;4.57;;;4.56;;
71176;SDS011;58877;51.992;4.504;2023-05-20T03:23:21;4.57;;;4.56;;
71176;SDS011;58877;51.992;4.504;2023-05-20T03:25:47;4.47;;;4.47;;
71176;SDS011;58877;51.992;4.504;2023-05-20T03:28:12;4.29;;;4.29;;
71176;SDS011;58877;51.992;4.504;2023-05-20T03:30:38;4.71;;;4.71;;
71176;SDS011;58877;51.992;4.504;2023-05-20T03:33:03;4.85;;;4.84;;
71176;SDS011;58877;51.992;4.504;2023-05-20T03:35:30;4.79;;;4.75;;
71176;SDS011;58877;51.992;4.504;2023-05-20T03:37:55;4.77;;;4.72;;
71176;SDS011;58877;51.992;4.504;2023-05-20T03:40:21;4.48;;;4.47;;
71176;SDS011;58877;51.992;4.504;2023-05-20T03:42:46;4.13;;;4.12;;
71176;SDS011;58877;51.992;4.504;2023-05-20T03:45:12;4.46;;;4.44;;
71176;SDS011;58877;51.992;4.504;2023-05-20T03:47:38;4.83;;;4.83;;
71176;SDS011;58877;51.992;4.504;2023-05-20T03:50:04;4.38;;;4.38;;
71176;SDS011;58877;51.992;4.504;2023-05-20T03:52:30;4.15;;;4.14;;
71176;SDS011;58877;51.992;4.504;2023-05-20T03:54:56;4.61;;;4.58;;
71176;SDS011;58877;51.992;4.504;2023-05-20T03:57:21;4.42;;;4.38;;
71176;SDS011;58877;51.992;4.504;2023-05-20T03:59:47;4.11;;;4.08;;
71176;SDS011;58877;51.992;4.504;2023-05-20T04:02:12;4.37;;;4.35;;
71176;SDS011;58877;51.992;4.504;2023-05-20T04:04:38;4.06;;;4.06;;
71176;SDS011;58877;51.992;4.504;2023-05-20T04:07:07;4.27;;;4.27;;
71176;SDS011;58877;51.992;4.504;2023-05-20T04:09:33;4.23;;;4.22;;
71176;SDS011;58877;51.992;4.504;2023-05-20T04:11:59;4.35;;;4.33;;
71176;SDS011;58877;51.992;4.504;2023-05-20T04:14:26;4.46;;;4.45;;
71176;SDS011;58877;51.992;4.504;2023-05-20T04:16:51;4.45;;;4.42;;
71176;SDS011;58877;51.992;4.504;2023-05-20T04:19:17;4.75;;;4.72;;
71176;SDS011;58877;51.992;4.504;2023-05-20T04:21:52;4.54;;;4.52;;
71176;SDS011;58877;51.992;4.504;2023-05-20T04:24:18;4.41;;;4.41;;
71176;SDS011;58877;51.992;4.504;2023-05-20T04:26:43;4.34;;;4.34;;
71176;SDS011;58877;51.992;4.504;2023-05-20T04:29:09;4.15;;;4.15;;
71176;SDS011;58877;51.992;4.504;2023-05-20T04:31:36;4.40;;;4.38;;
71176;SDS011;58877;51.992;4.504;2023-05-20T04:34:02;4.09;;;4.08;;
71176;SDS011;58877;51.992;4.504;2023-05-20T04:36:29;4.32;;;4.32;;
71176;SDS011;58877;51.992;4.504;2023-05-20T04:38:55;4.04;;;4.03;;
71176;SDS011;58877;51.992;4.504;2023-05-20T04:41:21;4.22;;;4.22;;
71176;SDS011;58877;51.992;4.504;2023-05-20T04:43:48;4.45;;;4.43;;
71176;SDS011;58877;51.992;4.504;2023-05-20T04:46:14;4.30;;;4.27;;
71176;SDS011;58877;51.992;4.504;2023-05-20T04:48:40;4.08;;;4.08;;
71176;SDS011;58877;51.992;4.504;2023-05-20T04:51:08;4.40;;;4.40;;
71176;SDS011;58877;51.992;4.504;2023-05-20T04:53:34;3.80;;;3.80;;
71176;SDS011;58877;51.992;4.504;2023-05-20T04:56:00;4.45;;;4.42;;
71176;SDS011;58877;51.992;4.504;2023-05-20T04:58:27;4.32;;;4.31;;
71176;SDS011;58877;51.992;4.504;2023-05-20T05:00:54;4.27;;;4.25;;
71176;SDS011;58877;51.992;4.504;2023-05-20T05:03:20;4.28;;;4.27;;
71176;SDS011;58877;51.992;4.504;2023-05-20T05:05:46;4.06;;;4.06;;
71176;SDS011;58877;51.992;4.504;2023-05-20T05:08:11;3.79;;;3.79;;
71176;SDS011;58877;51.992;4.504;2023-05-20T05:10:37;4.22;;;4.20;;
71176;SDS011;58877;51.992;4.504;2023-05-20T05:13:02;4.10;;;4.09;;
71176;SDS011;58877;51.992;4.504;2023-05-20T05:15:28;4.02;;;4.01;;
71176;SDS011;58877;51.992;4.504;2023-05-20T05:17:54;4.12;;;4.12;;
71176;SDS011;58877;51.992;4.504;2023-05-20T05:20:20;4.33;;;4.33;;
71176;SDS011;58877;51.992;4.504;2023-05-20T05:22:46;4.06;;;4.06;;
71176;SDS011;58877;51.992;4.504;2023-05-20T05:25:14;4.23;;;4.23;;
71176;SDS011;58877;51.992;4.504;2023-05-20T05:27:40;3.97;;;3.97;;
71176;SDS011;58877;51.992;4.504;2023-05-20T05:30:06;4.06;;;4.06;;
71176;SDS011;58877;51.992;4.504;2023-05-20T05:32:32;3.73;;;3.72;;
71176;SDS011;58877;51.992;4.504;2023-05-20T05:34:58;3.98;;;3.97;;
71176;SDS011;58877;51.992;4.504;2023-05-20T05:37:24;4.18;;;4.14;;
71176;SDS011;58877;51.992;4.504;2023-05-20T05:39:50;3.99;;;3.98;;
71176;SDS011;58877;51.992;4.504;2023-05-20T05:42:19;3.79;;;3.78;;
71176;SDS011;58877;51.992;4.504;2023-05-20T05:44:45;4.03;;;4.01;;
71176;SDS011;58877;51.992;4.504;2023-05-20T05:47:13;3.89;;;3.88;;
71176;SDS011;58877;51.992;4.504;2023-05-20T05:49:38;3.61;;;3.61;;
71176;SDS011;58877;51.992;4.504;2023-05-20T05:52:04;3.61;;;3.61;;
71176;SDS011;58877;51.992;4.504;2023-05-20T05:54:30;3.65;;;3.65;;
71176;SDS011;58877;51.992;4.504;2023-05-20T05:56:58;3.96;;;3.96;;
71176;SDS011;58877;51.992;4.504;2023-05-20T05:59:34;4.09;;;4.09;;
71176;SDS011;58877;51.992;4.504;2023-05-20T06:02:00;4.03;;;4.03;;
71176;SDS011;58877;51.992;4.504;2023-05-20T06:04:26;4.07;;;4.07;;
71176;SDS011;58877;51.992;4.504;2023-05-20T06:07:03;4.10;;;4.10;;
71176;SDS011;58877;51.992;4.504;2023-05-20T06:09:40;3.61;;;3.61;;
71176;SDS011;58877;51.992;4.504;2023-05-20T06:12:06;4.21;;;4.20;;
71176;SDS011;58877;51.992;4.504;2023-05-20T06:14:32;4.38;;;4.37;;
71176;SDS011;58877;51.992;4.504;2023-05-20T06:16:57;4.27;;;4.24;;
71176;SDS011;58877;51.992;4.504;2023-05-20T06:19:23;3.96;;;3.96;;
71176;SDS011;58877;51.992;4.504;2023-05-20T06:21:48;3.67;;;3.67;;
71176;SDS011;58877;51.992;4.504;2023-05-20T06:24:14;3.86;;;3.86;;
71176;SDS011;58877;51.992;4.504;2023-05-20T06:26:40;3.76;;;3.76;;
71176;SDS011;58877;51.992;4.504;2023-05-20T06:29:05;4.05;;;4.05;;
71176;SDS011;58877;51.992;4.504;2023-05-20T06:31:31;3.89;;;3.89;;
71176;SDS011;58877;51.992;4.504;2023-05-20T06:33:56;3.64;;;3.64;;
71176;SDS011;58877;51.992;4.504;2023-05-20T06:38:55;3.70;;;3.68;;
71176;SDS011;58877;51.992;4.504;2023-05-20T06:41:24;3.79;;;3.79;;
71176;SDS011;58877;51.992;4.504;2023-05-20T06:43:53;3.88;;;3.88;;
71176;SDS011;58877;51.992;4.504;2023-05-20T06:46:25;3.84;;;3.84;;
71176;SDS011;58877;51.992;4.504;2023-05-20T06:48:51;3.51;;;3.48;;
71176;SDS011;58877;51.992;4.504;2023-05-20T06:51:17;3.82;;;3.78;;
71176;SDS011;58877;51.992;4.504;2023-05-20T06:53:50;3.79;;;3.74;;
71176;SDS011;58877;51.992;4.504;2023-05-20T06:56:16;3.94;;;3.91;;
71176;SDS011;58877;51.992;4.504;2023-05-20T06:58:44;3.83;;;3.83;;
71176;SDS011;58877;51.992;4.504;2023-05-20T07:01:10;3.94;;;3.94;;
71176;SDS011;58877;51.992;4.504;2023-05-20T07:03:38;3.90;;;3.90;;
71176;SDS011;58877;51.992;4.504;2023-05-20T07:06:04;3.62;;;3.62;;
71176;SDS011;58877;51.992;4.504;2023-05-20T07:08:33;3.87;;;3.86;;
71176;SDS011;58877;51.992;4.504;2023-05-20T07:11:04;3.88;;;3.88;;
71176;SDS011;58877;51.992;4.504;2023-05-20T07:13:30;3.93;;;3.93;;
71176;SDS011;58877;51.992;4.504;2023-05-20T07:15:58;3.50;;;3.50;;
71176;SDS011;58877;51.992;4.504;2023-05-20T07:18:25;3.66;;;3.66;;
71176;SDS011;58877;51.992;4.504;2023-05-20T07:20:53;3.60;;;3.60;;
71176;SDS011;58877;51.992;4.504;2023-05-20T07:23:22;3.81;;;3.81;;
71176;SDS011;58877;51.992;4.504;2023-05-20T07:25:55;3.92;;;3.90;;
71176;SDS011;58877;51.992;4.504;2023-05-20T07:28:23;3.84;;;3.84;;
71176;SDS011;58877;51.992;4.504;2023-05-20T07:30:49;3.23;;;3.23;;
71176;SDS011;58877;51.992;4.504;2023-05-20T07:33:15;3.79;;;3.79;;
71176;SDS011;58877;51.992;4.504;2023-05-20T07:35:42;3.83;;;3.83;;
71176;SDS011;58877;51.992;4.504;2023-05-20T07:38:17;3.85;;;3.85;;
71176;SDS011;58877;51.992;4.504;2023-05-20T07:40:43;3.86;;;3.86;;
71176;SDS011;58877;51.992;4.504;2023-05-20T07:43:09;3.65;;;3.65;;
71176;SDS011;58877;51.992;4.504;2023-05-20T07:45:35;3.35;;;3.35;;
71176;SDS011;58877;51.992;4.504;2023-05-20T07:48:06;3.29;;;3.29;;
71176;SDS011;58877;51.992;4.504;2023-05-20T07:50:35;3.33;;;3.32;;
71176;SDS011;58877;51.992;4.504;2023-05-20T07:53:06;3.80;;;3.80;;
71176;SDS011;58877;51.992;4.504;2023-05-20T07:55:38;3.65;;;3.65;;
71176;SDS011;58877;51.992;4.504;2023-05-20T07:58:22;3.50;;;3.50;;
71176;SDS011;58877;51.992;4.504;2023-05-20T08:00:51;3.47;;;3.47;;
71176;SDS011;58877;51.992;4.504;2023-05-20T08:03:27;3.75;;;3.75;;
71176;SDS011;58877;51.992;4.504;2023-05-20T08:05:55;3.80;;;3.80;;
71176;SDS011;58877;51.992;4.504;2023-05-20T08:08:24;3.53;;;3.53;;
71176;SDS011;58877;51.992;4.504;2023-05-20T08:10:56;3.83;;;3.83;;
71176;SDS011;58877;51.992;4.504;2023-05-20T08:13:25;3.21;;;3.21;;
71176;SDS011;58877;51.992;4.504;2023-05-20T08:15:52;3.42;;;3.42;;
71176;SDS011;58877;51.992;4.504;2023-05-20T08:18:22;3.73;;;3.73;;
71176;SDS011;58877;51.992;4.504;2023-05-20T08:20:48;3.70;;;3.70;;
71176;SDS011;58877;51.992;4.504;2023-05-20T08:23:17;3.30;;;3.30;;
71176;SDS011;58877;51.992;4.504;2023-05-20T08:25:46;3.29;;;3.29;;
71176;SDS011;58877;51.992;4.504;2023-05-20T08:28:18;3.06;;;3.06;;
71176;SDS011;58877;51.992;4.504;2023-05-20T08:30:47;3.21;;;3.21;;
71176;SDS011;58877;51.992;4.504;2023-05-20T08:33:13;3.26;;;3.26;;
71176;SDS011;58877;51.992;4.504;2023-05-20T08:35:39;2.98;;;2.97;;
71176;SDS011;58877;51.992;4.504;2023-05-20T08:38:05;3.11;;;3.09;;
71176;SDS011;58877;51.992;4.504;2023-05-20T08:40:41;3.09;;;3.08;;
71176;SDS011;58877;51.992;4.504;2023-05-20T08:43:07;3.39;;;3.38;;
71176;SDS011;58877;51.992;4.504;2023-05-20T08:45:39;2.87;;;2.87;;
71176;SDS011;58877;51.992;4.504;2023-05-20T08:48:06;2.98;;;2.98;;
71176;SDS011;58877;51.992;4.504;2023-05-20T08:50:31;2.94;;;2.94;;
71176;SDS011;58877;51.992;4.504;2023-05-20T08:52:58;2.78;;;2.78;;
71176;SDS011;58877;51.992;4.504;2023-05-20T08:55:28;3.29;;;3.29;;
71176;SDS011;58877;51.992;4.504;2023-05-20T08:58:10;2.90;;;2.90;;
71176;SDS011;58877;51.992;4.504;2023-05-20T09:00:39;2.40;;;2.40;;
71176;SDS011;58877;51.992;4.504;2023-05-20T09:03:06;2.55;;;2.55;;
71176;SDS011;58877;51.992;4.504;2023-05-20T09:05:50;2.54;;;2.54;;
71176;SDS011;58877;51.992;4.504;2023-05-20T09:08:18;2.83;;;2.83;;
71176;SDS011;58877;51.992;4.504;2023-05-20T09:10:51;2.60;;;2.60;;
71176;SDS011;58877;51.992;4.504;2023-05-20T09:13:18;2.70;;;2.70;;
71176;SDS011;58877;51.992;4.504;2023-05-20T09:15:44;2.50;;;2.50;;
71176;SDS011;58877;51.992;4.504;2023-05-20T09:18:10;2.43;;;2.43;;
71176;SDS011;58877;51.992;4.504;2023-05-20T09:20:45;2.39;;;2.39;;
71176;SDS011;58877;51.992;4.504;2023-05-20T09:23:12;2.24;;;2.24;;
71176;SDS011;58877;51.992;4.504;2023-05-20T09:25:38;2.32;;;2.32;;
71176;SDS011;58877;51.992;4.504;2023-05-20T09:28:13;2.54;;;2.54;;
71176;SDS011;58877;51.992;4.504;2023-05-20T09:30:49;2.48;;;2.48;;
71176;SDS011;58877;51.992;4.504;2023-05-20T09:33:17;2.67;;;2.67;;
71176;SDS011;58877;51.992;4.504;2023-05-20T09:35:43;2.29;;;2.29;;
71176;SDS011;58877;51.992;4.504;2023-05-20T09:38:09;2.40;;;2.40;;
71176;SDS011;58877;51.992;4.504;2023-05-20T09:40:36;2.24;;;2.24;;
71176;SDS011;58877;51.992;4.504;2023-05-20T09:43:07;2.16;;;2.16;;
71176;SDS011;58877;51.992;4.504;2023-05-20T09:45:35;1.90;;;1.90;;
71176;SDS011;58877;51.992;4.504;2023-05-20T09:48:05;2.18;;;2.18;;
71176;SDS011;58877;51.992;4.504;2023-05-20T09:50:37;2.09;;;2.09;;
71176;SDS011;58877;51.992;4.504;2023-05-20T09:53:03;1.86;;;1.86;;
71176;SDS011;58877;51.992;4.504;2023-05-20T09:55:30;1.86;;;1.86;;
71176;SDS011;58877;51.992;4.504;2023-05-20T09:57:57;1.85;;;1.84;;
71176;SDS011;58877;51.992;4.504;2023-05-20T10:00:27;1.89;;;1.88;;
71176;SDS011;58877;51.992;4.504;2023-05-20T10:02:52;1.82;;;1.81;;
71176;SDS011;58877;51.992;4.504;2023-05-20T10:05:19;1.84;;;1.83;;
71176;SDS011;58877;51.992;4.504;2023-05-20T10:11:26;1.68;;;1.68;;
71176;SDS011;58877;51.992;4.504;2023-05-20T10:13:46;1.85;;;1.85;;
71176;SDS011;58877;51.992;4.504;2023-05-20T10:19:39;1.88;;;1.86;;
71176;SDS011;58877;51.992;4.504;2023-05-20T10:22:05;1.66;;;1.64;;
71176;SDS011;58877;51.992;4.504;2023-05-20T10:24:35;1.45;;;1.43;;
71176;SDS011;58877;51.992;4.504;2023-05-20T10:27:13;1.65;;;1.64;;
71176;SDS011;58877;51.992;4.504;2023-05-20T10:29:42;1.52;;;1.52;;
71176;SDS011;58877;51.992;4.504;2023-05-20T10:32:10;1.28;;;1.28;;
71176;SDS011;58877;51.992;4.504;2023-05-20T10:34:46;1.37;;;1.37;;
71176;SDS011;58877;51.992;4.504;2023-05-20T10:37:29;1.44;;;1.44;;
71176;SDS011;58877;51.992;4.504;2023-05-20T10:40:09;1.41;;;1.41;;
71176;SDS011;58877;51.992;4.504;2023-05-20T10:43:07;1.41;;;1.41;;
71176;SDS011;58877;51.992;4.504;2023-05-20T10:45:56;1.56;;;1.56;;
71176;SDS011;58877;51.992;4.504;2023-05-20T10:48:24;1.87;;;1.87;;
71176;SDS011;58877;51.992;4.504;2023-05-20T10:50:55;2.07;;;2.07;;
71176;SDS011;58877;51.992;4.504;2023-05-20T10:53:22;2.02;;;2.02;;
71176;SDS011;58877;51.992;4.504;2023-05-20T10:55:50;2.03;;;2.03;;
71176;SDS011;58877;51.992;4.504;2023-05-20T10:58:17;2.00;;;1.99;;
71176;SDS011;58877;51.992;4.504;2023-05-20T11:00:44;1.95;;;1.94;;
71176;SDS011;58877;51.992;4.504;2023-05-20T11:03:11;1.79;;;1.77;;
71176;SDS011;58877;51.992;4.504;2023-05-20T11:05:39;2.11;;;2.09;;
71176;SDS011;58877;51.992;4.504;2023-05-20T11:08:06;2.25;;;2.23;;
71176;SDS011;58877;51.992;4.504;2023-05-20T11:10:36;2.21;;;2.19;;
71176;SDS011;58877;51.992;4.504;2023-05-20T11:13:02;2.44;;;2.43;;
71176;SDS011;58877;51.992;4.504;2023-05-20T11:15:33;2.28;;;2.27;;
71176;SDS011;58877;51.992;4.504;2023-05-20T11:18:02;2.11;;;2.11;;
71176;SDS011;58877;51.992;4.504;2023-05-20T11:20:31;2.08;;;2.08;;
71176;SDS011;58877;51.992;4.504;2023-05-20T11:23:04;2.17;;;2.17;;
71176;SDS011;58877;51.992;4.504;2023-05-20T11:25:31;1.81;;;1.81;;
71176;SDS011;58877;51.992;4.504;2023-05-20T11:27:58;2.00;;;2.00;;
71176;SDS011;58877;51.992;4.504;2023-05-20T11:30:23;2.14;;;2.14;;
71176;SDS011;58877;51.992;4.504;2023-05-20T11:32:57;2.21;;;2.21;;
71176;SDS011;58877;51.992;4.504;2023-05-20T11:35:25;1.89;;;1.88;;
71176;SDS011;58877;51.992;4.504;2023-05-20T11:38:20;1.84;;;1.83;;
71176;SDS011;58877;51.992;4.504;2023-05-20T11:40:49;1.90;;;1.88;;
71176;SDS011;58877;51.992;4.504;2023-05-20T11:43:17;1.99;;;1.99;;
71176;SDS011;58877;51.992;4.504;2023-05-20T11:45:44;1.78;;;1.78;;
71176;SDS011;58877;51.992;4.504;2023-05-20T11:48:12;1.98;;;1.97;;
71176;SDS011;58877;51.992;4.504;2023-05-20T11:50:42;2.01;;;2.00;;
71176;SDS011;58877;51.992;4.504;2023-05-20T11:53:16;1.95;;;1.94;;
71176;SDS011;58877;51.992;4.504;2023-05-20T11:55:43;1.88;;;1.87;;
71176;SDS011;58877;51.992;4.504;2023-05-20T11:58:14;1.94;;;1.94;;
71176;SDS011;58877;51.992;4.504;2023-05-20T12:00:44;1.81;;;1.81;;
71176;SDS011;58877;51.992;4.504;2023-05-20T12:03:09;1.72;;;1.72;;
71176;SDS011;58877;51.992;4.504;2023-05-20T12:05:35;1.82;;;1.82;;
71176;SDS011;58877;51.992;4.504;2023-05-20T12:08:01;2.15;;;2.15;;
71176;SDS011;58877;51.992;4.504;2023-05-20T12:10:28;2.00;;;2.00;;
71176;SDS011;58877;51.992;4.504;2023-05-20T12:12:54;1.97;;;1.97;;
71176;SDS011;58877;51.992;4.504;2023-05-20T12:15:19;2.24;;;2.24;;
71176;SDS011;58877;51.992;4.504;2023-05-20T12:17:46;2.34;;;2.34;;
71176;SDS011;58877;51.992;4.504;2023-05-20T12:20:14;1.96;;;1.96;;
71176;SDS011;58877;51.992;4.504;2023-05-20T12:22:42;2.12;;;2.12;;
71176;SDS011;58877;51.992;4.504;2023-05-20T12:25:12;1.90;;;1.90;;
71176;SDS011;58877;51.992;4.504;2023-05-20T12:27:40;1.77;;;1.77;;
71176;SDS011;58877;51.992;4.504;2023-05-20T12:30:08;2.01;;;2.00;;
71176;SDS011;58877;51.992;4.504;2023-05-20T12:32:37;1.94;;;1.94;;
71176;SDS011;58877;51.992;4.504;2023-05-20T12:35:03;1.99;;;1.99;;
71176;SDS011;58877;51.992;4.504;2023-05-20T12:39:57;1.92;;;1.92;;
71176;SDS011;58877;51.992;4.504;2023-05-20T12:42:23;2.19;;;2.19;;
71176;SDS011;58877;51.992;4.504;2023-05-20T12:44:50;1.87;;;1.87;;
71176;SDS011;58877;51.992;4.504;2023-05-20T12:47:16;2.32;;;2.30;;
71176;SDS011;58877;51.992;4.504;2023-05-20T12:49:42;1.92;;;1.90;;
71176;SDS011;58877;51.992;4.504;2023-05-20T12:52:08;1.94;;;1.93;;
71176;SDS011;58877;51.992;4.504;2023-05-20T12:54:33;1.96;;;1.96;;
71176;SDS011;58877;51.992;4.504;2023-05-20T12:57:02;1.93;;;1.93;;
71176;SDS011;58877;51.992;4.504;2023-05-20T12:59:28;2.16;;;2.16;;
71176;SDS011;58877;51.992;4.504;2023-05-20T13:01:54;2.14;;;2.14;;
71176;SDS011;58877;51.992;4.504;2023-05-20T13:04:20;2.03;;;2.02;;
71176;SDS011;58877;51.992;4.504;2023-05-20T13:06:46;2.22;;;2.21;;
71176;SDS011;58877;51.992;4.504;2023-05-20T13:09:12;2.27;;;2.26;;
71176;SDS011;58877;51.992;4.504;2023-05-20T13:11:38;1.59;;;1.58;;
71176;SDS011;58877;51.992;4.504;2023-05-20T13:14:04;2.07;;;2.07;;
71176;SDS011;58877;51.992;4.504;2023-05-20T13:16:30;1.77;;;1.77;;
71176;SDS011;58877;51.992;4.504;2023-05-20T13:18:56;1.84;;;1.84;;
71176;SDS011;58877;51.992;4.504;2023-05-20T13:21:22;2.29;;;2.29;;
71176;SDS011;58877;51.992;4.504;2023-05-20T13:23:51;2.02;;;2.02;;
71176;SDS011;58877;51.992;4.504;2023-05-20T13:26:17;1.83;;;1.83;;
71176;SDS011;58877;51.992;4.504;2023-05-20T13:28:43;1.93;;;1.93;;
71176;SDS011;58877;51.992;4.504;2023-05-20T13:31:08;2.08;;;2.08;;
71176;SDS011;58877;51.992;4.504;2023-05-20T13:33:34;1.68;;;1.68;;
71176;SDS011;58877;51.992;4.504;2023-05-20T13:36:01;1.74;;;1.74;;
71176;SDS011;58877;51.992;4.504;2023-05-20T13:38:26;1.89;;;1.89;;
71176;SDS011;58877;51.992;4.504;2023-05-20T13:40:52;1.68;;;1.68;;
71176;SDS011;58877;51.992;4.504;2023-05-20T13:43:18;1.81;;;1.81;;
71176;SDS011;58877;51.992;4.504;2023-05-20T13:45:44;1.81;;;1.80;;
71176;SDS011;58877;51.992;4.504;2023-05-20T13:48:11;1.68;;;1.68;;
71176;SDS011;58877;51.992;4.504;2023-05-20T13:50:36;2.12;;;2.12;;
71176;SDS011;58877;51.992;4.504;2023-05-20T13:53:02;1.75;;;1.75;;
71176;SDS011;58877;51.992;4.504;2023-05-20T13:55:29;1.78;;;1.78;;
71176;SDS011;58877;51.992;4.504;2023-05-20T13:57:55;1.79;;;1.79;;
71176;SDS011;58877;51.992;4.504;2023-05-20T14:00:21;1.82;;;1.82;;
71176;SDS011;58877;51.992;4.504;2023-05-20T14:02:47;1.79;;;1.79;;
71176;SDS011;58877;51.992;4.504;2023-05-20T14:05:13;1.74;;;1.74;;
71176;SDS011;58877;51.992;4.504;2023-05-20T14:07:39;1.89;;;1.89;;
71176;SDS011;58877;51.992;4.504;2023-05-20T14:10:05;1.89;;;1.89;;
71176;SDS011;58877;51.992;4.504;2023-05-20T14:12:33;1.75;;;1.75;;
71176;SDS011;58877;51.992;4.504;2023-05-20T14:15:02;1.86;;;1.86;;
71176;SDS011;58877;51.992;4.504;2023-05-20T14:17:28;2.00;;;2.00;;
71176;SDS011;58877;51.992;4.504;2023-05-20T14:19:54;1.80;;;1.80;;
71176;SDS011;58877;51.992;4.504;2023-05-20T14:22:27;1.94;;;1.94;;
71176;SDS011;58877;51.992;4.504;2023-05-20T14:24:53;1.92;;;1.92;;
71176;SDS011;58877;51.992;4.504;2023-05-20T14:27:19;2.03;;;2.03;;
71176;SDS011;58877;51.992;4.504;2023-05-20T14:29:45;2.00;;;2.00;;
71176;SDS011;58877;51.992;4.504;2023-05-20T14:32:11;1.92;;;1.92;;
71176;SDS011;58877;51.992;4.504;2023-05-20T14:34:38;2.06;;;2.06;;
71176;SDS011;58877;51.992;4.504;2023-05-20T14:37:04;1.99;;;1.99;;
71176;SDS011;58877;51.992;4.504;2023-05-20T14:39:37;1.60;;;1.60;;
71176;SDS011;58877;51.992;4.504;2023-05-20T14:42:04;1.78;;;1.78;;
71176;SDS011;58877;51.992;4.504;2023-05-20T14:44:30;2.00;;;1.99;;
71176;SDS011;58877;51.992;4.504;2023-05-20T14:46:56;1.79;;;1.79;;
71176;SDS011;58877;51.992;4.504;2023-05-20T14:49:27;1.92;;;1.91;;
71176;SDS011;58877;51.992;4.504;2023-05-20T14:51:53;1.62;;;1.62;;
71176;SDS011;58877;51.992;4.504;2023-05-20T14:54:19;1.98;;;1.98;;
71176;SDS011;58877;51.992;4.504;2023-05-20T14:56:49;1.74;;;1.74;;
71176;SDS011;58877;51.992;4.504;2023-05-20T14:59:18;2.05;;;2.05;;
71176;SDS011;58877;51.992;4.504;2023-05-20T15:01:44;1.77;;;1.77;;